Time;durP1;ratioP1;P1;durP2;ratioP2;P2;SDS_P1;SDS_P2;PMS_P1;PMS_P2;Temp;Humidity;BMP_temperature;BMP_pressure;BME280_temperature;BME280_humidity;BME280_pressure;Samples;Min_cycle;Max_cycle;Signal;HPM_P1;HPM_P2
2022/12/08 00:00:35;;;;;;;5.95;3.95;;;;;;;;;;4907274;29;20096;-86
2022/12/08 00:03:00;;;;;;;6.97;4.00;;;;;;;;;;4924341;29;20028;-86
2022/12/08 00:10:54;;;;;;;9.80;5.95;;;;;;;;;;4907288;29;20032;-86
2022/12/08 00:13:19;;;;;;;9.20;5.43;;;;;;;;;;4907470;29;20071;-86
2022/12/08 00:15:45;;;;;;;7.55;4.78;;;;;;;;;;4890776;29;20039;-84
2022/12/08 00:18:10;;;;;;;10.60;5.28;;;;;;;;;;4907877;29;20031;-85
2022/12/08 00:20:36;;;;;;;7.22;4.47;;;;;;;;;;4924439;29;20032;-86
2022/12/08 00:23:03;;;;;;;7.65;4.18;;;;;;;;;;4923589;29;20060;-84
2022/12/08 00:25:29;;;;;;;7.25;4.10;;;;;;;;;;4923139;29;20042;-85
2022/12/08 00:27:54;;;;;;;5.85;3.80;;;;;;;;;;4924062;29;20175;-86
2022/12/08 00:30:20;;;;;;;8.02;3.85;;;;;;;;;;4923898;29;20080;-87
2022/12/08 00:32:45;;;;;;;6.25;3.85;;;;;;;;;;4907175;29;20047;-84
2022/12/08 00:35:11;;;;;;;7.32;3.90;;;;;;;;;;4890760;29;20040;-84
2022/12/08 00:37:36;;;;;;;6.45;3.88;;;;;;;;;;4906909;29;20043;-86
2022/12/08 00:40:02;;;;;;;6.35;3.72;;;;;;;;;;4906160;29;20112;-84
2022/12/08 00:42:28;;;;;;;5.47;3.40;;;;;;;;;;4906869;29;20078;-84
2022/12/08 00:44:53;;;;;;;5.20;3.30;;;;;;;;;;4906481;29;20413;-85
2022/12/08 00:47:19;;;;;;;5.00;3.20;;;;;;;;;;4924242;29;20036;-85
2022/12/08 00:49:44;;;;;;;4.05;2.90;;;;;;;;;;4905787;29;20052;-84
2022/12/08 00:52:11;;;;;;;5.53;3.20;;;;;;;;;;4923589;29;20040;-85
2022/12/08 00:54:37;;;;;;;5.57;3.22;;;;;;;;;;4906678;29;20044;-85
2022/12/08 00:57:02;;;;;;;5.10;3.35;;;;;;;;;;4924453;29;20091;-83
2022/12/08 00:59:28;;;;;;;4.75;2.83;;;;;;;;;;4906234;29;20035;-84
2022/12/08 01:01:53;;;;;;;5.00;3.03;;;;;;;;;;4906668;29;20072;-85
2022/12/08 01:04:19;;;;;;;4.32;2.85;;;;;;;;;;4923735;29;20032;-86
2022/12/08 01:06:47;;;;;;;6.45;3.10;;;;;;;;;;4924235;29;20056;-84
2022/12/08 01:09:16;;;;;;;3.85;2.55;;;;;;;;;;4924149;29;20205;-81
2022/12/08 01:11:43;;;;;;;4.10;2.88;;;;;;;;;;4906303;29;20096;-84
2022/12/08 01:14:10;;;;;;;4.50;2.92;;;;;;;;;;4923444;29;20040;-84
2022/12/08 01:16:36;;;;;;;4.40;2.75;;;;;;;;;;4906260;29;20039;-84
2022/12/08 01:19:03;;;;;;;5.88;2.90;;;;;;;;;;4906623;29;20048;-85
2022/12/08 01:21:28;;;;;;;5.40;2.90;;;;;;;;;;4906890;29;20051;-84
2022/12/08 01:23:54;;;;;;;6.78;2.90;;;;;;;;;;4906374;29;20040;-84
2022/12/08 01:26:21;;;;;;;6.35;3.40;;;;;;;;;;4922545;29;20099;-84
2022/12/08 01:28:47;;;;;;;5.15;2.90;;;;;;;;;;4890691;29;20040;-83
2022/12/08 01:31:18;;;;;;;5.55;3.00;;;;;;;;;;4924154;29;20040;-84
2022/12/08 01:33:44;;;;;;;4.28;2.58;;;;;;;;;;4923486;29;20036;-85
2022/12/08 01:36:20;;;;;;;4.60;2.90;;;;;;;;;;4923213;29;20115;-84
2022/12/08 01:38:45;;;;;;;4.57;2.75;;;;;;;;;;4893537;29;20425;-84
2022/12/08 01:41:20;;;;;;;4.72;2.90;;;;;;;;;;4893912;29;20036;-84
2022/12/08 01:43:53;;;;;;;7.00;3.75;;;;;;;;;;4927077;29;20095;-84
2022/12/08 01:46:18;;;;;;;6.03;3.13;;;;;;;;;;4910014;29;20087;-84
2022/12/08 01:48:44;;;;;;;5.28;3.20;;;;;;;;;;4927067;29;20176;-84
2022/12/08 01:51:09;;;;;;;5.85;3.30;;;;;;;;;;4927759;29;20036;-84
2022/12/08 01:53:35;;;;;;;5.63;2.97;;;;;;;;;;4926335;29;20072;-84
2022/12/08 01:56:17;;;;;;;5.80;2.83;;;;;;;;;;4909384;29;20152;-84
2022/12/08 01:58:48;;;;;;;5.20;2.60;;;;;;;;;;4927736;29;20036;-84
2022/12/08 02:01:14;;;;;;;4.78;2.95;;;;;;;;;;4909238;29;20044;-83
2022/12/08 02:03:46;;;;;;;4.30;2.58;;;;;;;;;;4910395;29;20040;-84
2022/12/08 02:06:12;;;;;;;4.25;2.70;;;;;;;;;;4910455;29;20042;-84
2022/12/08 02:08:39;;;;;;;5.45;2.65;;;;;;;;;;4927107;29;20075;-84
2022/12/08 02:11:09;;;;;;;5.15;2.38;;;;;;;;;;4910064;29;20067;-84
2022/12/08 02:13:34;;;;;;;4.50;2.30;;;;;;;;;;4893791;29;20057;-84
2022/12/08 02:16:37;;;;;;;4.97;2.42;;;;;;;;;;4909331;29;20043;-83
2022/12/08 02:19:23;;;;;;;4.18;2.55;;;;;;;;;;4926413;29;20044;-82
2022/12/08 02:22:10;;;;;;;4.10;2.40;;;;;;;;;;4926577;29;20032;-83
2022/12/08 02:24:54;;;;;;;5.72;2.63;;;;;;;;;;4909616;29;20075;-84
2022/12/08 02:27:23;;;;;;;4.28;2.53;;;;;;;;;;4894709;29;20044;-84
2022/12/08 02:30:13;;;;;;;4.28;2.42;;;;;;;;;;4910166;29;20028;-84
2022/12/08 02:33:17;;;;;;;4.32;2.47;;;;;;;;;;4910357;29;20060;-84
2022/12/08 02:35:52;;;;;;;4.25;2.40;;;;;;;;;;4867576;29;20050;-84
2022/12/08 02:38:26;;;;;;;4.32;2.58;;;;;;;;;;4901516;29;20071;-84
2022/12/08 02:41:21;;;;;;;5.45;2.60;;;;;;;;;;4926711;29;20068;-84
2022/12/08 02:43:51;;;;;;;3.45;2.50;;;;;;;;;;4926541;29;20061;-84
2022/12/08 02:46:22;;;;;;;3.92;2.60;;;;;;;;;;4926190;29;20123;-84
2022/12/08 02:48:50;;;;;;;4.63;2.65;;;;;;;;;;4925830;29;20127;-84
2022/12/08 02:51:16;;;;;;;4.60;2.90;;;;;;;;;;4909297;29;20047;-84
2022/12/08 02:53:43;;;;;;;4.00;2.72;;;;;;;;;;4909302;29;20036;-84
2022/12/08 02:56:26;;;;;;;4.07;2.65;;;;;;;;;;4908797;29;20088;-84
2022/12/08 02:58:57;;;;;;;;;;;;;;;;;;4927612;29;20084;-84
2022/12/08 03:01:42;;;;;;;5.30;2.75;;;;;;;;;;4909556;29;19915;-84
2022/12/08 03:04:20;;;;;;;4.18;2.58;;;;;;;;;;4909247;29;20037;-83
2022/12/08 03:07:20;;;;;;;4.38;2.78;;;;;;;;;;4926374;29;20046;-83
2022/12/08 03:10:18;;;;;;;5.07;2.63;;;;;;;;;;4909627;29;20032;-84
2022/12/08 03:12:55;;;;;;;4.13;2.50;;;;;;;;;;4925927;29;20164;-84
2022/12/08 03:15:21;;;;;;;4.07;2.40;;;;;;;;;;4908545;29;20044;-84
2022/12/08 03:17:55;;;;;;;4.60;2.28;;;;;;;;;;4908959;29;20091;-84
2022/12/08 03:20:23;;;;;;;3.80;2.20;;;;;;;;;;4909172;29;20036;-84
2022/12/08 03:22:52;;;;;;;3.65;2.50;;;;;;;;;;4924836;29;20040;-83
2022/12/08 03:25:21;;;;;;;6.00;2.53;;;;;;;;;;4908717;29;20080;-84
2022/12/08 03:27:47;;;;;;;5.28;2.70;;;;;;;;;;4925907;29;20446;-84
2022/12/08 03:30:13;;;;;;;3.28;2.45;;;;;;;;;;4908265;29;20039;-83
2022/12/08 03:32:45;;;;;;;3.90;2.45;;;;;;;;;;4908608;29;20096;-83
2022/12/08 03:35:14;;;;;;;3.80;2.58;;;;;;;;;;4907644;29;20040;-83
2022/12/08 03:37:40;;;;;;;4.40;2.40;;;;;;;;;;4925857;29;20606;-83
2022/12/08 03:40:10;;;;;;;3.88;2.30;;;;;;;;;;4926212;29;20039;-83
2022/12/08 03:42:35;;;;;;;4.70;2.47;;;;;;;;;;4908641;29;20032;-84
2022/12/08 03:45:01;;;;;;;4.80;2.67;;;;;;;;;;4908060;29;20054;-83
2022/12/08 03:47:26;;;;;;;3.75;2.67;;;;;;;;;;4893114;29;20036;-83
2022/12/08 03:49:52;;;;;;;3.25;2.30;;;;;;;;;;4908688;29;20549;-83
2022/12/08 03:52:17;;;;;;;4.68;2.47;;;;;;;;;;4908512;29;20036;-83
2022/12/08 03:54:42;;;;;;;4.10;2.60;;;;;;;;;;4925090;29;20067;-84
2022/12/08 03:57:08;;;;;;;3.60;2.50;;;;;;;;;;4908593;29;20063;-83
2022/12/08 03:59:34;;;;;;;5.10;2.63;;;;;;;;;;4892292;29;20040;-83
2022/12/08 04:01:59;;;;;;;4.75;2.22;;;;;;;;;;4907326;29;20036;-83
2022/12/08 04:04:24;;;;;;;3.88;2.40;;;;;;;;;;4891843;29;20511;-84
2022/12/08 04:06:50;;;;;;;3.78;2.50;;;;;;;;;;4908301;29;20047;-83
2022/12/08 04:09:15;;;;;;;4.60;2.92;;;;;;;;;;4908683;29;20048;-84
2022/12/08 04:11:41;;;;;;;4.50;2.65;;;;;;;;;;4924852;29;20043;-83
2022/12/08 04:14:06;;;;;;;5.05;2.60;;;;;;;;;;4925631;29;20192;-83
2022/12/08 04:16:32;;;;;;;3.83;2.33;;;;;;;;;;4925061;29;20032;-83
2022/12/08 04:18:57;;;;;;;4.10;2.78;;;;;;;;;;4925142;29;20050;-82
2022/12/08 04:21:23;;;;;;;4.25;2.63;;;;;;;;;;4907374;29;20036;-83
2022/12/08 04:23:48;;;;;;;3.45;2.40;;;;;;;;;;4907260;29;20024;-83
2022/12/08 04:26:14;;;;;;;5.28;3.47;;;;;;;;;;4891958;29;20043;-84
2022/12/08 04:28:39;;;;;;;6.75;3.63;;;;;;;;;;4925214;29;20024;-83
2022/12/08 04:31:05;;;;;;;4.50;3.15;;;;;;;;;;4925281;29;20040;-84
2022/12/08 04:33:31;;;;;;;6.55;3.17;;;;;;;;;;4907427;29;20398;-84
2022/12/08 04:35:57;;;;;;;5.97;3.47;;;;;;;;;;4906807;29;20043;-83
2022/12/08 04:38:22;;;;;;;5.82;3.13;;;;;;;;;;4925552;29;20091;-83
2022/12/08 04:40:48;;;;;;;4.90;2.70;;;;;;;;;;4907197;29;20084;-84
2022/12/08 04:43:14;;;;;;;4.80;2.92;;;;;;;;;;4907217;29;20032;-83
2022/12/08 04:45:40;;;;;;;5.70;3.40;;;;;;;;;;4924021;29;20051;-82
2022/12/08 04:48:06;;;;;;;6.43;3.22;;;;;;;;;;4923751;29;20035;-84
2022/12/08 04:50:31;;;;;;;5.30;2.80;;;;;;;;;;4923817;29;20036;-83
2022/12/08 04:52:57;;;;;;;4.82;2.80;;;;;;;;;;4906511;29;20484;-83
2022/12/08 04:55:22;;;;;;;5.70;2.70;;;;;;;;;;4923648;29;20047;-84
2022/12/08 04:57:48;;;;;;;4.95;2.75;;;;;;;;;;4906451;29;20040;-84
2022/12/08 05:00:14;;;;;;;3.65;2.63;;;;;;;;;;4923087;29;20481;-84
2022/12/08 05:02:40;;;;;;;4.15;2.78;;;;;;;;;;4906810;29;20036;-83
2022/12/08 05:05:06;;;;;;;5.88;3.28;;;;;;;;;;4923034;29;20039;-83
2022/12/08 05:07:32;;;;;;;4.60;2.92;;;;;;;;;;4924075;29;20036;-83
2022/12/08 05:09:57;;;;;;;4.15;2.97;;;;;;;;;;4924831;29;20031;-84
2022/12/08 05:12:23;;;;;;;4.50;2.63;;;;;;;;;;4908527;29;20509;-83
2022/12/08 05:14:48;;;;;;;5.57;2.80;;;;;;;;;;4927458;29;20446;-83
2022/12/08 05:17:15;;;;;;;8.25;5.10;;;;;;;;;;4910904;29;20040;-83
2022/12/08 05:19:41;;;;;;;15.18;9.60;;;;;;;;;;4911197;29;20108;-83
2022/12/08 05:22:06;;;;;;;9.52;6.22;;;;;;;;;;4895108;29;20066;-84
2022/12/08 05:24:32;;;;;;;6.53;4.53;;;;;;;;;;4927990;29;20043;-83
2022/12/08 05:26:57;;;;;;;5.57;3.78;;;;;;;;;;4928140;29;20042;-83
2022/12/08 05:29:23;;;;;;;6.13;4.18;;;;;;;;;;4927959;29;20050;-83
2022/12/08 05:31:48;;;;;;;7.05;4.65;;;;;;;;;;4911944;29;20036;-84
2022/12/08 05:34:14;;;;;;;12.13;4.78;;;;;;;;;;4927996;29;20040;-83
2022/12/08 05:36:39;;;;;;;7.18;4.82;;;;;;;;;;4928643;29;20044;-83
2022/12/08 05:39:05;;;;;;;7.47;4.20;;;;;;;;;;4910984;29;20083;-83
2022/12/08 05:41:30;;;;;;;6.18;4.03;;;;;;;;;;4911232;29;20144;-83
2022/12/08 05:43:56;;;;;;;8.15;5.25;;;;;;;;;;4910584;29;20075;-83
2022/12/08 05:46:21;;;;;;;8.60;6.18;;;;;;;;;;4909885;29;20046;-84
2022/12/08 05:48:47;;;;;;;7.45;4.70;;;;;;;;;;4894694;29;20036;-83
2022/12/08 05:51:21;;;;;;;8.50;5.25;;;;;;;;;;4928532;29;20072;-83
2022/12/08 05:53:48;;;;;;;24.50;12.10;;;;;;;;;;4895564;29;20091;-83
2022/12/08 05:56:14;;;;;;;20.10;10.10;;;;;;;;;;4928189;29;20072;-83
2022/12/08 05:58:39;;;;;;;12.55;5.82;;;;;;;;;;4910626;29;20043;-84
2022/12/08 06:01:05;;;;;;;7.07;4.22;;;;;;;;;;4911422;29;20420;-82
2022/12/08 06:03:30;;;;;;;7.75;4.63;;;;;;;;;;4910230;29;20040;-82
2022/12/08 06:05:56;;;;;;;7.60;4.63;;;;;;;;;;4894942;29;20072;-83
2022/12/08 06:08:22;;;;;;;9.38;4.75;;;;;;;;;;4910704;29;20131;-83
2022/12/08 06:10:47;;;;;;;7.18;3.83;;;;;;;;;;4927299;29;20040;-83
2022/12/08 06:13:13;;;;;;;7.43;4.32;;;;;;;;;;4910383;29;20043;-83
2022/12/08 06:15:40;;;;;;;8.00;4.80;;;;;;;;;;4927033;29;20039;-83
2022/12/08 06:18:06;;;;;;;10.68;4.93;;;;;;;;;;4910507;29;20036;-83
2022/12/08 06:20:32;;;;;;;7.40;4.35;;;;;;;;;;4928032;29;20044;-83
2022/12/08 06:22:58;;;;;;;9.18;4.93;;;;;;;;;;4928959;29;20036;-83
2022/12/08 06:25:24;;;;;;;8.32;5.05;;;;;;;;;;4927892;29;20033;-83
2022/12/08 06:27:50;;;;;;;8.30;4.90;;;;;;;;;;4929693;29;20032;-83
2022/12/08 06:30:16;;;;;;;7.82;4.60;;;;;;;;;;4912411;29;20032;-84
2022/12/08 06:32:42;;;;;;;9.20;4.53;;;;;;;;;;4912035;29;20036;-83
2022/12/08 06:35:08;;;;;;;7.28;4.25;;;;;;;;;;4911554;29;20433;-83
2022/12/08 06:37:33;;;;;;;7.28;4.15;;;;;;;;;;4912398;29;20139;-84
2022/12/08 06:39:59;;;;;;;10.80;4.20;;;;;;;;;;4929709;29;20036;-82
2022/12/08 06:42:43;;;;;;;7.60;3.83;;;;;;;;;;4929178;29;20087;-83
2022/12/08 06:45:10;;;;;;;6.63;4.30;;;;;;;;;;4912308;29;20482;-83
2022/12/08 06:47:35;;;;;;;7.47;4.07;;;;;;;;;;4928711;29;20039;-82
2022/12/08 06:50:01;;;;;;;6.85;4.35;;;;;;;;;;4928791;29;20036;-83
2022/12/08 06:52:26;;;;;;;7.88;4.72;;;;;;;;;;4912886;29;20549;-83
2022/12/08 06:54:52;;;;;;;8.32;4.70;;;;;;;;;;4911892;29;20040;-83
2022/12/08 06:57:17;;;;;;;8.85;4.60;;;;;;;;;;4929375;29;20048;-83
2022/12/08 06:59:43;;;;;;;7.07;4.25;;;;;;;;;;4912191;29;20051;-83
2022/12/08 07:02:10;;;;;;;7.68;4.57;;;;;;;;;;4911939;29;20043;-83
2022/12/08 07:04:36;;;;;;;5.80;3.83;;;;;;;;;;4879177;29;20025;-84
2022/12/08 07:07:01;;;;;;;28.67;15.77;;;;;;;;;;4910676;29;20470;-83
2022/12/08 07:09:27;;;;;;;25.60;14.30;;;;;;;;;;4922747;23;20047;-87
2022/12/08 07:11:52;;;;;;;20.70;10.75;;;;;;;;;;4919369;29;20040;-88
2022/12/08 07:14:22;;;;;;;13.55;8.07;;;;;;;;;;4903333;29;20035;-87
2022/12/08 07:16:47;;;;;;;9.60;5.50;;;;;;;;;;4921766;29;20066;-86
2022/12/08 07:19:13;;;;;;;8.38;4.97;;;;;;;;;;4922260;29;20040;-87
2022/12/08 07:21:39;;;;;;;7.78;4.60;;;;;;;;;;4904098;29;20037;-87
2022/12/08 07:24:04;;;;;;;13.07;5.18;;;;;;;;;;4886134;29;20441;-88
2022/12/08 07:26:30;;;;;;;23.67;10.32;;;;;;;;;;4903251;29;20033;-85
2022/12/08 07:28:55;;;;;;;24.40;9.15;;;;;;;;;;4908110;29;20115;-88
2022/12/08 07:31:23;;;;;;;17.08;7.30;;;;;;;;;;4900123;29;20037;-87
2022/12/08 07:33:49;;;;;;;10.27;5.40;;;;;;;;;;4899717;29;20044;-86
2022/12/08 07:36:14;;;;;;;8.52;4.30;;;;;;;;;;4882754;29;20439;-86
2022/12/08 07:38:41;;;;;;;9.57;4.53;;;;;;;;;;4866694;29;20045;-87
2022/12/08 07:41:14;;;;;;;12.52;6.53;;;;;;;;;;4898328;29;20060;-84
2022/12/08 07:43:40;;;;;;;10.32;5.30;;;;;;;;;;4909510;29;20053;-86
2022/12/08 07:46:05;;;;;;;9.95;5.78;;;;;;;;;;4883751;29;20028;-87
2022/12/08 07:48:31;;;;;;;9.70;4.97;;;;;;;;;;4901005;29;20161;-85
2022/12/08 07:51:01;;;;;;;8.18;4.68;;;;;;;;;;4901253;29;20040;-86
2022/12/08 07:53:27;;;;;;;7.88;4.60;;;;;;;;;;4900947;29;20039;-86
2022/12/08 07:55:52;;;;;;;8.70;4.72;;;;;;;;;;4884349;29;20131;-86
2022/12/08 07:58:18;;;;;;;8.55;4.10;;;;;;;;;;4868631;29;20027;-86
2022/12/08 08:00:43;;;;;;;10.15;5.63;;;;;;;;;;4884520;29;20083;-86
2022/12/08 08:03:10;;;;;;;11.90;6.43;;;;;;;;;;4901559;29;20043;-86
2022/12/08 08:05:36;;;;;;;14.02;8.00;;;;;;;;;;4884047;29;20105;-86
2022/12/08 08:08:01;;;;;;;12.50;7.40;;;;;;;;;;4901024;29;20032;-86
2022/12/08 08:10:27;;;;;;;8.85;5.40;;;;;;;;;;4901215;29;20087;-86
2022/12/08 08:12:52;;;;;;;12.63;5.60;;;;;;;;;;4900667;29;20128;-86
2022/12/08 08:15:19;;;;;;;13.75;6.75;;;;;;;;;;4883340;29;20040;-86
2022/12/08 08:17:49;;;;;;;7.18;4.70;;;;;;;;;;4900818;29;20052;-88
2022/12/08 08:20:14;;;;;;;7.47;4.53;;;;;;;;;;4900818;29;20033;-86
2022/12/08 08:22:39;;;;;;;6.38;4.40;;;;;;;;;;4901366;29;20040;-85
2022/12/08 08:25:05;;;;;;;6.75;4.55;;;;;;;;;;4869656;29;20119;-87
2022/12/08 08:27:31;;;;;;;10.70;6.05;;;;;;;;;;4901792;29;20136;-86
2022/12/08 08:29:56;;;;;;;22.48;10.40;;;;;;;;;;4915319;29;20072;-86
2022/12/08 08:32:21;;;;;;;24.35;12.02;;;;;;;;;;4892952;29;20076;-86
2022/12/08 08:34:47;;;;;;;14.63;8.13;;;;;;;;;;4918758;29;20095;-86
2022/12/08 08:37:12;;;;;;;12.88;7.28;;;;;;;;;;4918462;29;20032;-85
2022/12/08 08:39:38;;;;;;;8.68;5.43;;;;;;;;;;4917896;29;20401;-85
2022/12/08 08:42:03;;;;;;;6.82;4.25;;;;;;;;;;4901157;29;20051;-87
2022/12/08 08:44:29;;;;;;;6.25;4.10;;;;;;;;;;4918022;29;20028;-87
2022/12/08 08:46:54;;;;;;;7.10;4.07;;;;;;;;;;4900202;29;20470;-87
2022/12/08 08:49:20;;;;;;;6.15;3.90;;;;;;;;;;4909862;29;20044;-84
2022/12/08 08:51:45;;;;;;;5.60;3.55;;;;;;;;;;4905593;29;20044;-86
2022/12/08 08:54:11;;;;;;;5.75;3.88;;;;;;;;;;4919772;29;20078;-83
2022/12/08 08:56:36;;;;;;;9.20;4.90;;;;;;;;;;4911473;29;20072;-87
2022/12/08 08:59:02;;;;;;;13.02;6.57;;;;;;;;;;4904393;29;20319;-86
2022/12/08 09:01:28;;;;;;;11.18;5.97;;;;;;;;;;4920421;29;20043;-86
2022/12/08 09:03:56;;;;;;;7.97;3.90;;;;;;;;;;4920959;29;20040;-87
2022/12/08 09:06:23;;;;;;;7.95;4.10;;;;;;;;;;4920119;29;20040;-87
2022/12/08 09:08:49;;;;;;;9.38;4.90;;;;;;;;;;4903310;29;20044;-86
2022/12/08 09:11:17;;;;;;;7.85;4.45;;;;;;;;;;4902528;29;20051;-87
2022/12/08 09:13:43;;;;;;;8.25;4.72;;;;;;;;;;4902554;29;20043;-86
2022/12/08 09:16:10;;;;;;;6.22;3.92;;;;;;;;;;4901522;29;20415;-87
2022/12/08 09:18:36;;;;;;;8.05;3.80;;;;;;;;;;4902731;29;20036;-85
2022/12/08 09:21:07;;;;;;;7.05;3.90;;;;;;;;;;4902835;29;20048;-86
2022/12/08 09:23:33;;;;;;;5.95;3.80;;;;;;;;;;4903072;29;20047;-85
2022/12/08 09:25:58;;;;;;;5.40;3.60;;;;;;;;;;4919705;29;20036;-86
2022/12/08 09:28:24;;;;;;;5.93;3.70;;;;;;;;;;4920220;29;20043;-87
2022/12/08 09:30:50;;;;;;;6.25;3.53;;;;;;;;;;4910240;29;20028;-87
2022/12/08 09:33:16;;;;;;;4.80;3.35;;;;;;;;;;4903077;29;20100;-87
2022/12/08 09:35:41;;;;;;;5.60;3.45;;;;;;;;;;4906968;29;20040;-87
2022/12/08 09:38:07;;;;;;;6.07;3.50;;;;;;;;;;4899206;29;20084;-87
2022/12/08 09:40:50;;;;;;;6.55;3.40;;;;;;;;;;4898848;29;20047;-86
2022/12/08 09:43:53;;;;;;;8.20;4.07;;;;;;;;;;4900456;29;20056;-86
2022/12/08 09:46:19;;;;;;;6.70;4.00;;;;;;;;;;4898548;29;20047;-87
2022/12/08 09:48:54;;;;;;;7.18;3.95;;;;;;;;;;4898912;29;20028;-86
2022/12/08 09:51:24;;;;;;;8.52;3.78;;;;;;;;;;4898663;29;20533;-87
2022/12/08 09:53:58;;;;;;;4.65;3.28;;;;;;;;;;4897687;29;20047;-87
2022/12/08 09:56:30;;;;;;;5.60;3.10;;;;;;;;;;4898772;29;20044;-87
2022/12/08 09:59:00;;;;;;;4.97;3.00;;;;;;;;;;4898765;29;20043;-87
2022/12/08 10:01:32;;;;;;;5.35;3.13;;;;;;;;;;4900564;29;20043;-86
2022/12/08 10:03:58;;;;;;;5.40;2.97;;;;;;;;;;4900369;29;20036;-84
2022/12/08 10:06:38;;;;;;;7.00;3.13;;;;;;;;;;4899428;29;20032;-85
2022/12/08 10:09:33;;;;;;;4.57;3.40;;;;;;;;;;4912562;29;20040;-87
2022/12/08 10:12:02;;;;;;;7.32;2.90;;;;;;;;;;4903011;29;20036;-86
2022/12/08 10:14:54;;;;;;;4.95;3.10;;;;;;;;;;4902373;29;20064;-85
2022/12/08 10:17:33;;;;;;;3.93;2.80;;;;;;;;;;4903107;29;20052;-86
2022/12/08 10:20:08;;;;;;;7.22;3.67;;;;;;;;;;4903414;29;20040;-86
2022/12/08 10:22:34;;;;;;;5.60;3.40;;;;;;;;;;4903163;29;20052;-86
2022/12/08 10:25:06;;;;;;;5.70;3.35;;;;;;;;;;4901395;29;20096;-85
2022/12/08 10:27:34;;;;;;;5.47;3.78;;;;;;;;;;4901524;29;20137;-86
2022/12/08 10:30:00;;;;;;;4.70;3.40;;;;;;;;;;4903575;29;20029;-86
2022/12/08 10:32:33;;;;;;;6.05;4.00;;;;;;;;;;4902709;29;20047;-89
2022/12/08 10:35:13;;;;;;;5.60;3.40;;;;;;;;;;4900672;29;20033;-85
2022/12/08 10:37:39;;;;;;;5.55;3.58;;;;;;;;;;4902293;29;20037;-85
2022/12/08 10:40:16;;;;;;;5.32;3.30;;;;;;;;;;4910865;29;20072;-87
2022/12/08 10:42:46;;;;;;;5.03;2.92;;;;;;;;;;4884722;29;20088;-87
2022/12/08 10:45:20;;;;;;;5.65;3.40;;;;;;;;;;4900111;29;20044;-87
2022/12/08 10:48:12;;;;;;;5.75;3.47;;;;;;;;;;4901530;29;20052;-87
2022/12/08 10:50:55;;;;;;;6.75;3.50;;;;;;;;;;4900744;29;20055;-87
2022/12/08 10:53:29;;;;;;;7.75;3.90;;;;;;;;;;4901308;29;20051;-86
2022/12/08 10:56:01;;;;;;;5.57;3.50;;;;;;;;;;4900704;29;20048;-85
2022/12/08 10:58:35;;;;;;;5.80;3.53;;;;;;;;;;4899512;29;20040;-87
2022/12/08 11:01:05;;;;;;;6.63;4.18;;;;;;;;;;4900681;29;20055;-85
2022/12/08 11:03:56;;;;;;;8.48;4.20;;;;;;;;;;4900590;29;20463;-86
2022/12/08 11:06:28;;;;;;;7.30;4.05;;;;;;;;;;4899872;29;20052;-87
2022/12/08 11:08:59;;;;;;;5.72;3.80;;;;;;;;;;4898675;29;20032;-86
2022/12/08 11:11:48;;;;;;;5.78;3.58;;;;;;;;;;4899043;29;20080;-87
2022/12/08 11:14:29;;;;;;;6.05;3.55;;;;;;;;;;4897966;29;20070;-86
2022/12/08 11:17:09;;;;;;;7.22;4.13;;;;;;;;;;4899151;29;20041;-86
2022/12/08 11:19:54;;;;;;;6.80;3.88;;;;;;;;;;4900712;29;20044;-85
2022/12/08 11:22:33;;;;;;;7.10;4.03;;;;;;;;;;4889022;29;20058;-86
2022/12/08 11:25:12;;;;;;;13.55;4.72;;;;;;;;;;4901290;29;20029;-85
2022/12/08 11:27:40;;;;;;;6.63;4.25;;;;;;;;;;4902121;29;20073;-86
2022/12/08 11:30:24;;;;;;;5.88;3.65;;;;;;;;;;4900967;29;20494;-85
2022/12/08 11:32:56;;;;;;;12.80;4.00;;;;;;;;;;4903740;29;20123;-84
2022/12/08 11:35:27;;;;;;;6.20;3.55;;;;;;;;;;4901792;29;20077;-84
2022/12/08 11:37:57;;;;;;;7.90;4.03;;;;;;;;;;4901980;29;20050;-84
2022/12/08 11:40:36;;;;;;;7.55;4.43;;;;;;;;;;4903898;29;20048;-84
2022/12/08 11:43:24;;;;;;;6.22;3.70;;;;;;;;;;4906345;29;20032;-88
2022/12/08 11:45:57;;;;;;;7.03;4.07;;;;;;;;;;4899744;29;20061;-88
2022/12/08 11:48:35;;;;;;;6.05;3.78;;;;;;;;;;4898155;29;20104;-88
2022/12/08 11:51:04;;;;;;;7.57;3.65;;;;;;;;;;4898441;29;20040;-88
2022/12/08 11:54:00;;;;;;;5.53;3.28;;;;;;;;;;4898221;29;20052;-88
2022/12/08 11:56:33;;;;;;;8.68;3.53;;;;;;;;;;4899336;29;20048;-87
2022/12/08 11:59:07;;;;;;;9.52;3.60;;;;;;;;;;4899304;29;20486;-86
2022/12/08 12:01:32;;;;;;;6.80;3.63;;;;;;;;;;4899303;29;20044;-88
2022/12/08 12:04:08;;;;;;;5.93;3.60;;;;;;;;;;4916698;29;20036;-87
2022/12/08 12:07:03;;;;;;;5.35;3.42;;;;;;;;;;4900823;29;20051;-87
2022/12/08 12:09:42;;;;;;;6.88;3.80;;;;;;;;;;4917534;29;20036;-87
2022/12/08 12:12:31;;;;;;;8.23;3.58;;;;;;;;;;4900491;29;20032;-87
2022/12/08 12:14:59;;;;;;;5.38;3.50;;;;;;;;;;4900467;29;20047;-86
2022/12/08 12:17:27;;;;;;;5.90;3.55;;;;;;;;;;4917353;29;20040;-87
2022/12/08 12:19:54;;;;;;;5.03;3.22;;;;;;;;;;4899933;29;20123;-87
2022/12/08 12:22:22;;;;;;;5.50;3.42;;;;;;;;;;4899421;29;20049;-87
2022/12/08 12:24:50;;;;;;;5.43;3.28;;;;;;;;;;4916751;29;20036;-86
2022/12/08 12:27:28;;;;;;;4.80;3.03;;;;;;;;;;4903042;29;20036;-86
2022/12/08 12:30:00;;;;;;;5.15;2.67;;;;;;;;;;4919631;29;20059;-86
2022/12/08 12:32:51;;;;;;;6.05;3.00;;;;;;;;;;4910538;29;20115;-87
2022/12/08 12:35:33;;;;;;;10.93;3.00;;;;;;;;;;4918612;29;20043;-87
2022/12/08 12:38:59;;;;;;;5.55;3.45;;;;;;;;;;4901681;29;20124;-85
2022/12/08 12:40:50;;;;;;;5.25;3.45;;;;;;;;;;4917652;29;20067;-87
2022/12/08 12:43:28;;;;;;;5.35;3.30;;;;;;;;;;4900359;29;20035;-89
2022/12/08 12:46:22;;;;;;;6.28;3.20;;;;;;;;;;4907627;29;20032;-88
2022/12/08 12:48:47;;;;;;;;;;;;;;;;;;4902287;29;20040;-84
2022/12/08 12:51:37;;;;;;;16.33;7.53;;;;;;;;;;4918654;29;19915;-86
2022/12/08 12:54:24;;;;;;;10.02;5.25;;;;;;;;;;4900997;29;20047;-87
2022/12/08 12:56:53;;;;;;;10.30;4.72;;;;;;;;;;4917888;29;20095;-87
2022/12/08 12:59:46;;;;;;;7.65;4.28;;;;;;;;;;4917628;29;20079;-87
2022/12/08 13:02:23;;;;;;;7.85;4.03;;;;;;;;;;4900696;29;20425;-87
2022/12/08 13:05:12;;;;;;;6.57;3.92;;;;;;;;;;4901079;29;20126;-87
2022/12/08 13:08:10;;;;;;;7.45;4.07;;;;;;;;;;4895107;29;20051;-86
2022/12/08 13:10:47;;;;;;;6.50;3.97;;;;;;;;;;4912599;23;20052;-86
2022/12/08 13:13:13;;;;;;;6.43;4.45;;;;;;;;;;4885520;29;20560;-84
2022/12/08 13:15:47;;;;;;;8.20;4.13;;;;;;;;;;4917908;29;20036;-85
2022/12/08 13:18:20;;;;;;;6.38;4.38;;;;;;;;;;4919173;29;20036;-85
2022/12/08 13:20:50;;;;;;;7.28;4.15;;;;;;;;;;4919180;29;20403;-85
2022/12/08 13:23:45;;;;;;;8.27;5.05;;;;;;;;;;4902047;29;20103;-85
2022/12/08 13:26:16;;;;;;;7.63;4.68;;;;;;;;;;4918521;29;20040;-85
2022/12/08 13:29:00;;;;;;;7.45;5.05;;;;;;;;;;4919250;29;20505;-85
2022/12/08 13:31:44;;;;;;;7.82;4.50;;;;;;;;;;4901118;29;20044;-85
2022/12/08 13:34:17;;;;;;;7.75;4.93;;;;;;;;;;4920374;29;20485;-85
2022/12/08 13:37:05;;;;;;;9.23;5.18;;;;;;;;;;4922009;29;20040;-85
2022/12/08 13:39:43;;;;;;;9.00;5.20;;;;;;;;;;4922124;29;20040;-85
2022/12/08 13:42:12;;;;;;;8.27;4.82;;;;;;;;;;4921925;29;20114;-85
2022/12/08 13:45:04;;;;;;;8.35;5.07;;;;;;;;;;4904930;29;20040;-85
2022/12/08 13:47:34;;;;;;;8.20;5.32;;;;;;;;;;4889566;29;20040;-86
2022/12/08 13:50:11;;;;;;;9.25;5.50;;;;;;;;;;4921661;29;20433;-85
2022/12/08 13:52:49;;;;;;;9.20;5.05;;;;;;;;;;4921754;29;20055;-86
2022/12/08 13:55:24;;;;;;;8.88;5.45;;;;;;;;;;4921514;29;20486;-86
2022/12/08 13:57:50;;;;;;;11.23;6.32;;;;;;;;;;4922199;29;20044;-86
2022/12/08 14:00:18;;;;;;;11.13;5.85;;;;;;;;;;4921881;29;20028;-85
2022/12/08 14:02:49;;;;;;;11.73;5.60;;;;;;;;;;4905150;29;20047;-84
2022/12/08 14:05:18;;;;;;;8.75;4.90;;;;;;;;;;4889566;29;20040;-84
2022/12/08 14:07:45;;;;;;;8.80;5.07;;;;;;;;;;4922049;29;20071;-84
2022/12/08 14:10:21;;;;;;;9.75;4.68;;;;;;;;;;4921415;29;20398;-85
2022/12/08 14:12:52;;;;;;;8.05;4.70;;;;;;;;;;4923841;29;20409;-85
2022/12/08 14:15:18;;;;;;;7.65;4.88;;;;;;;;;;4921685;29;20044;-85
2022/12/08 14:17:52;;;;;;;7.78;4.75;;;;;;;;;;4921376;29;20043;-84
2022/12/08 14:20:23;;;;;;;7.68;4.60;;;;;;;;;;4921713;29;20047;-85
2022/12/08 14:22:51;;;;;;;6.97;4.32;;;;;;;;;;4921504;29;20414;-85
2022/12/08 14:25:17;;;;;;;7.60;4.60;;;;;;;;;;4921508;29;20032;-85
2022/12/08 14:27:43;;;;;;;8.27;4.50;;;;;;;;;;4921066;29;20099;-85
2022/12/08 14:30:14;;;;;;;6.80;4.55;;;;;;;;;;4921591;29;20040;-86
2022/12/08 14:33:00;;;;;;;7.63;4.30;;;;;;;;;;4921941;29;20084;-85
2022/12/08 14:35:36;;;;;;;6.43;4.15;;;;;;;;;;4921117;29;20040;-85
2022/12/08 14:38:16;;;;;;;4.78;3.00;;;;;;;;;;4903457;29;20044;-85
2022/12/08 14:41:03;;;;;;;13.90;6.95;;;;;;;;;;4926297;29;20560;-82
2022/12/08 14:43:29;;;;;;;13.43;5.45;;;;;;;;;;4926742;29;20047;-84
2022/12/08 14:46:00;;;;;;;8.38;4.82;;;;;;;;;;4943424;29;20047;-83
2022/12/08 14:48:37;;;;;;;7.50;4.60;;;;;;;;;;4946528;29;20502;-83
2022/12/08 14:51:10;;;;;;;5.95;4.10;;;;;;;;;;4945615;29;20121;-82
2022/12/08 14:53:38;;;;;;;6.82;3.63;;;;;;;;;;4945721;29;20035;-84
2022/12/08 14:56:13;;;;;;;6.05;4.10;;;;;;;;;;4943397;29;20050;-83
2022/12/08 14:58:39;;;;;;;6.00;3.85;;;;;;;;;;4909344;29;20036;-83
2022/12/08 15:01:07;;;;;;;6.53;3.88;;;;;;;;;;4926690;29;20083;-83
2022/12/08 15:03:32;;;;;;;6.53;3.65;;;;;;;;;;4926266;29;20043;-83
2022/12/08 15:06:03;;;;;;;5.57;3.55;;;;;;;;;;4924932;29;20063;-84